Disclaimer

Please do not use the information listed here in-flight or in-navigation, as they are not provided to us by the airports but are provided by volunteers, so they might be outdated.

Search


Regions


Airport information page

Radio informations:
LILLE TWR - 118.55 MHz
LILLE GND - 121.85 MHz
Automatic Terminal Information Service (ATIS) - 119.325 MHz
LILLE APP - 120.275 MHz
LILLE INFO - 134.825 MHz

Airport informations:
Latitude: 50° 33' 42.99" N
Longitude: 003° 05' 22.00" E
Elevation: 157 feet - 48 meters
Operating hours: 24 hour operations
Operating agency: Civil government, landing fees and diplomatic clearance may be required
Timezone: UTC+1(+2DT) - Last Sunday in March to last Sunday in October
Fuel: Jet A1, without icing nhibitor.

100/130 MIL Spec, low lead, aviation gasoline (BLUE)

Runway information:
02/20 - 5184 x 98 feet< - >1580 x 30 meters
08/26 - 9268 x 148 feet< - >2825 x 45 meters

Recent METARs:
LFQQ 192130Z AUTO 04015KT 9999 BKN027 BKN036 04/M00 Q1011 TEMPO 05015G25KT OVC012
LFQQ 192200Z AUTO 04015KT 9999 BKN025 BKN035 OVC058 04/M00 Q1011 TEMPO 05015G25KT OVC012
LFQQ 192230Z AUTO 05015KT 9999 FEW025 OVC052 04/M00 Q1011 TEMPO 05015G25KT OVC012

Airport on the map: